Tiempo atmosférico en la estación meteorológica de Ceuta, Ceuta (87 m.)

Fecha
DESCASC
Temp. máxima en grados centígrados (hora)
DESCASC
Temp. mínima en grados centígrados (hora)
DESCASC
Temp. media en grados centígrados
DESCASC
Racha de viento máxima en m/sg (hora)
DESCASC
Velocidad máxima media en intervalos de 10 minutos(hora)
DESCASC
Precipitaciones diarias en mm
DESCASC
Precipitaciones de 00:00 a 06:00 en mm
DESCASC
Precipitaciones de 06:00 a 12:00 en mm
DESCASC
Precipitaciones de 12:00 a 18:00 en mm
DESCASC
Precipitaciones de 18:00 a 24:00 en mm
DESCASC
10-12-2017 19 (14:20) 15.6 (10:50) 17.3 12.78 (23:00) 6.11 (23:00) 0.2 0 0.2 0 0
09-12-2017 18.4 (15:20) 15 (09:00) 16.7 16.39 (16:40) 8.61 (17:40) 0 0 0 0 0
08-12-2017 20.1 (15:30) 10.2 (08:00) 15.2 13.06 (16:40) 6.67 (16:40) 0 0 0 0 0
07-12-2017 17.3 (13:10) 12.2 (00:00) 14.7 6.94 (06:30) 4.17 (03:20) 0 0 0 0 0
06-12-2017 16.5 (15:00) 13.4 (00:00) 14.9 9.17 (11:50) 5.56 (11:50) 0 0 0 0 0
05-12-2017 17 (14:10) 13.6 (00:00) 15.3 11.94 (04:50) 6.39 (16:00) 0 0 0 0 0
04-12-2017 15.9 (14:50) 12.7 (00:00) 14.3 10.83 (23:10) 6.39 (15:40) 0 0 0 0 0
03-12-2017 13.6 (15:20) 8.3 (00:00) 11 10 (22:00) 5.56 (23:50) 0 0 0 0 0
02-12-2017 16.2 (14:10) 9.1 (00:00) 12.7 7.22 (11:10) 4.17 (11:10) 0 0 0 0 0
01-12-2017 16.2 (12:40) 8.9 (00:00) 12.6 10.28 (19:20) 5.28 (20:50) 0 0 0 0 0
30-11-2017 15.7 (11:50) 11.3 (00:00) 13.5 11.67 (14:10) 5.28 (20:50) 0 0 0 0 0
29-11-2017 20.8 (09:40) 15.5 (00:00) 18.1 15.28 (11:20) 5.83 (21:20) 31.4 0 3 22.6 5.8
28-11-2017 18.7 (14:00) 14.3 (00:00) 16.5 5.56 (00:10) 3.33 (09:30) 0.4 0 0.2 0 0.2
27-11-2017 18 (14:30) 16.1 (00:00) 17.1 8.33 (12:40) 5.28 (00:20) 0 0 0 0 0
26-11-2017 22.4 (10:40) 16.9 (00:00) 19.6 7.5 (23:30) 5 (21:50) 0 0 0 0 0
25-11-2017 20.8 (16:40) 11.8 (00:00) 16.3 4.72 (06:10) 3.33 (08:10) 0 0 0 0 0
24-11-2017 19.7 (14:30) 14.6 (00:00) 17.2 4.72 (12:40) 3.61 (16:20) 0 0 0 0 0
23-11-2017 19.8 (13:20) 12.5 (00:00) 16.1 4.72 (14:30) 2.78 (16:10) 0 0 0 0 0
22-11-2017 18.3 (12:30) 13.3 (00:00) 15.8 5.28 (13:40) 3.61 (15:10) 0 0 0 0 0
21-11-2017 19.1 (12:50) 14.3 (00:00) 16.7 5.83 (05:40) 3.06 (00:20) 0 0 0 0 0
20-11-2017 18.5 (11:40) 15.1 (00:00) 16.8 7.5 (11:50) 5 (15:00) 0 0 0 0 0
19-11-2017 18.5 (11:10) 15.5 (00:00) 17 8.61 (10:50) 5.28 (10:40) 0 0 0 0 0
18-11-2017 19 (13:00) 16 (00:00) 17.5 7.22 (11:40) 4.72 (11:20) 0 0 0 0 0
17-11-2017 19.2 (12:30) 15.8 (00:00) 17.5 6.67 (13:30) 4.17 (13:30) 0 0 0 0 0
16-11-2017 19.4 (12:40) 13.7 (00:00) 16.5 5.28 (14:10) 3.33 (14:20) 0 0 0 0 0
15-11-2017 19.7 (13:00) 15.6 (00:00) 17.7 11.11 (06:40) 6.39 (06:40) 0 0 0 0 0

Gráficas

Temp. máximas Temp. mínimas Temp. medias Precipitaciones Rachas de viento máximas Velocidades máximas media en intervalos de 10 minutos

Datos horarios

Fecha y hora oficial Temperatura (ºC) Velocidad del viento (km/h) Dirección del viento Racha (km/h) Dirección de racha Precipitación (mm) Presión (hPa) Tendencia (hPa) Humedad (%)
2017-12-14 23:00:00 15.1 13 Sudoeste 36 Sudoeste 0 1011.5 -0.1 80
2017-12-14 22:00:00 15.3 10 Sudoeste 22 Oeste 0 1011.7 -0.1 77
2017-12-14 21:00:00 15 8 Sudoeste 26 Oeste 0 1011.7 -0.1 77
2017-12-14 20:00:00 15.1 15 Oeste 46 Oeste 0 1011.6 -0.1 76
2017-12-14 19:00:00 15 8 Oeste 30 Noroeste 0 1011.8 0.1 75
2017-12-14 18:00:00 14.7 8 Oeste 23 Norte 0 1011.8 -0.5 77
2017-12-14 17:00:00 15 11 Noroeste 42 Oeste 0 1011.7 -1.4 74
2017-12-14 16:00:00 15.3 9 Oeste 32 Oeste 0 1011.7 -2.4 72
2017-12-14 15:00:00 16.2 12 Sudoeste 40 Noroeste 0 1012.3 -2.7 65
2017-12-14 14:00:00 17.3 17 Oeste 48 Noroeste 0 1013.1 -2.2 59
2017-12-14 13:00:00 17 10 Sudoeste 25 Oeste 0 1014.1 -1 54
2017-12-14 12:00:00 16.3 11 Sur 22 Sudoeste 0 1015 0 54
2017-12-14 11:00:00 16.1 8 Sudoeste 22 Sudoeste 0 1015.3 0.6 46
2017-12-14 10:00:00 15.6 7 Oeste 37 Noroeste 0 1015.1 0.4 42
2017-12-14 09:00:00 14.3 10 Noroeste 30 Noroeste 0 1015 0 44
2017-12-14 08:00:00 13.9 6 Noroeste 25 Noroeste 0 1014.7 -0.8 43
2017-12-14 07:00:00 12.3 7 Sur 12 Sudoeste 0 1014.7 -1.1 45
2017-12-14 06:00:00 10.6 4 Sudoeste 10 Sudoeste 0 1015 -1.1 64
2017-12-14 05:00:00 10.5 4 Oeste 11 Sudoeste 0 1015.5 -1 67
2017-12-14 04:00:00 10.7 3 Este 8 Oeste 0 1015.8 -1.2 76
2017-12-14 03:00:00 10.5 0 Calma 10 Oeste 0 1016.1 -1.2 74
2017-12-14 02:00:00 10.9 9 Oeste 10 Sudoeste 0 1016.5 -0.8 77
2017-12-14 01:00:00 11 8 Sudoeste 10 Oeste 0 1017 -0.5 78
2017-12-14 00:00:00 11.3 7 Oeste 9 Oeste 0 1017.3 0.2 77
2017-12-13 23:00:00 11.3 5 Sudoeste 7 Oeste 0 1017.3 0.4 76
2017-12-13 22:00:00 11.4 3 Sudoeste 7 Oeste 0 1017.5 0.8 77
2017-12-13 21:00:00 11.5 4 Sudoeste 7 Sudoeste 0 1017.1 0.6 77
2017-12-13 20:00:00 11.9 3 Sudoeste 11 Sudeste 0 1016.9 0.1 76
2017-12-13 19:00:00 12.8 3 Sudeste 13 Sudeste 0 1016.7 0.2 72
2017-12-13 18:00:00 13.5 9 Este 14 Este 0 1016.5 -0.4 70
2017-12-13 17:00:00 14.2 10 Nordeste 19 Este 0 1016.8 -0.4 67
2017-12-13 16:00:00 15 10 Este 23 Este 0 1016.5 -1.2 64
2017-12-13 15:00:00 15.5 13 Este 22 Sudeste 0 1016.9 -0.8 60
2017-12-13 14:00:00 15.5 12 Sudeste 21 Sudeste 0 1017.2 -0.1 62
2017-12-13 13:00:00 15.4 13 Sudeste 19 Sudeste 0 1017.7 0.5 56
2017-12-13 12:00:00 16 11 Sudeste 23 Nordeste 0 1017.7 1 64
2017-12-13 11:00:00 15 15 Nordeste 27 Nordeste 0 1017.3 1.1 74
2017-12-13 10:00:00 14.4 14 Nordeste 23 Este 0 1017.2 1.9 73
2017-12-13 09:00:00 13.1 10 Nordeste 19 Nordeste 0 1016.7 1.7 77
2017-12-13 08:00:00 11.3 4 Noroeste 16 Noroeste 0 1016.2 1.3 80
2017-12-13 07:00:00 11.2 4 Noroeste 17 Noroeste 0 1015.3 0.8 77
2017-12-13 06:00:00 10.3 7 Norte 17 Norte 0 1015 1.2 72
2017-12-13 05:00:00 9.7 8 Noroeste 13 Norte 0 1014.9 1.2 75
2017-12-13 04:00:00 9.5 7 Noroeste 15 Noroeste 0 1014.5 0.9 71
2017-12-13 03:00:00 9.6 7 Noroeste 10 Noroeste 0 1013.8 0.7 69
2017-12-13 02:00:00 9.8 6 Noroeste 10 Noroeste 0 1013.7 1.4 68
2017-12-13 01:00:00 10 6 Noroeste 10 Noroeste 0 1013.6 1.8 66
2017-12-13 00:00:00 9.9 5 Noroeste 10 Noroeste 0 1013.1 2 64
2017-12-12 23:00:00 9.8 6 Noroeste 10 Noroeste 0 1012.3 2 67
2017-12-12 22:00:00 10.3 8 Noroeste 16 Noroeste 0 1011.8 2.6 66
2017-12-12 21:00:00 11.3 8 Noroeste 20 Oeste 0 1011.1 2.7 63
2017-12-12 20:00:00 11.2 4 Oeste 12 Noroeste 0 1010.3 2.8 63
2017-12-12 19:00:00 11.5 4 Noroeste 13 Noroeste 0 1009.2 2.3 60
2017-12-12 18:00:00 12.6 5 Oeste 15 Oeste 0 1008.4 2.3 61
2017-12-12 17:00:00 14.3 7 Oeste 17 Oeste 0 1007.5 1.4 54
2017-12-12 16:00:00 15.5 8 Noroeste 24 Noroeste 0 1006.9 0.6 41
2017-12-12 15:00:00 14.9 8 Noroeste 21 Noroeste 0 1006.1 -0.1 45
2017-12-12 14:00:00 14.6 9 Noroeste 28 Oeste 0 1006.1 0.2 48
2017-12-12 13:00:00 13.5 11 Noroeste 24 Noroeste 0 1006.3 0.9 57
2017-12-12 12:00:00 12.5 11 Noroeste 23 Noroeste -- 1006.2 2.4 61
2017-12-12 11:00:00 12.2 7 Noroeste 17 Oeste 0 1005.9 2.7 63
2017-12-12 10:00:00 11.1 11 Noroeste 28 Oeste 0 1005.4 3.7 69
2017-12-12 09:00:00 9.7 15 Noroeste 32 Noroeste 0 1003.8 3.2 68
2017-12-12 08:00:00 9.3 15 Noroeste 35 Oeste 0 1003.2 2.6 71
2017-12-12 07:00:00 9.6 17 Noroeste 37 Oeste 0 1001.7 1.5 74
2017-12-12 06:00:00 10.4 18 Noroeste 40 Noroeste 0 1000.6 0 68
2017-12-12 05:00:00 9.6 15 Noroeste 27 Noroeste 0 1000.6 0.7 77
2017-12-12 04:00:00 9.8 8 Oeste 31 Noroeste 0 1000.2 1.3 71
2017-12-12 03:00:00 10 13 Noroeste 32 Noroeste 0 1000.6 1.8 77
2017-12-12 02:00:00 10.5 12 Noroeste 31 Norte 0 999.9 1.9 78
2017-12-12 01:00:00 10.9 17 Noroeste 34 Oeste 0.4 998.9 1.1 83
2017-12-12 00:00:00 11.6 6 Oeste 23 Oeste 2.4 998.8 1.4 89
2017-12-11 23:00:00 12.5 10 Oeste 28 Sudoeste 0 998 1.1 78
2017-12-11 22:00:00 12.3 9 Sudoeste 22 Oeste 0 997.8 1.5 81
2017-12-11 21:00:00 11.5 11 Sur 19 Sur 0 997.4 1.8 83
2017-12-11 20:00:00 13.1 10 Sudoeste 20 Sudoeste 0 996.9 1.7 69
2017-12-11 19:00:00 13.1 9 Oeste 31 Oeste 0 996.3 1.6 66
2017-12-11 18:00:00 12.9 6 Oeste 30 Sudoeste 0 995.6 1.1 66
2017-12-11 17:00:00 13.3 9 Oeste 32 Noroeste 0 995.2 0.2 71
2017-12-11 16:00:00 13 13 Noroeste 28 Noroeste 0 994.7 -0.7 77
2017-12-11 15:00:00 12.6 8 Noroeste 24 Oeste 0 994.5 -1.9 81
2017-12-11 14:00:00 11.7 9 Sudoeste 27 Oeste 0 995 -0.2 84
2017-12-11 13:00:00 10.6 12 Oeste 32 Sudoeste 1.2 995.4 1.9 89
2017-12-11 12:00:00 9.4 20 Noroeste 66 Noroeste 7.8 996.4 4.4 89
2017-12-11 11:00:00 9.9 35 Noroeste 75 Oeste 7.8 995.2 6 94
2017-12-11 10:00:00 9.9 40 Noroeste 81 Noroeste 6.8 993.5 2.6 93
2017-12-11 09:00:00 14.4 29 Noroeste 71 Noroeste 4.8 992 -0.3 81
2017-12-11 08:00:00 17.8 25 Sudoeste 75 Oeste 0 989.2 -5.1 69
2017-12-11 07:00:00 16.1 24 Sudoeste 62 Sur 0.8 990.9 -4.7 86
2017-12-11 06:00:00 17.2 23 Sudoeste 55 Sur 0 992.3 -5.2 77
2017-12-11 05:00:00 17.2 19 Sudoeste 53 Sudoeste 0 994.3 -4.9 76
2017-12-11 04:00:00 17.5 22 Sudoeste 49 Sudoeste 0 995.6 -4.6 71
2017-12-11 03:00:00 17.6 18 Sudoeste 40 Sudoeste 0 997.5 -4.3 70
2017-12-11 02:00:00 17.5 14 Sudoeste 45 Sudoeste 0 999.2 -3 67
2017-12-11 01:00:00 17.5 18 Sudoeste 45 Sudoeste 0 1000.2 -3.8 68
2017-12-11 00:00:00 17.3 16 Sudoeste 45 Oeste 0 1001.8 -3.4 73
2017-12-10 23:00:00 17.1 22 Sudoeste 46 Sudoeste 0 1002.2 -3.2 75
2017-12-10 22:00:00 16.9 12 Sudoeste 41 Oeste 0 1004 -1.9 78
2017-12-10 21:00:00 16.9 13 Sudoeste 45 Oeste 0 1005.2 -1.7 79
2017-12-10 20:00:00 16.8 12 Sudoeste 41 Sudoeste 0 1005.4 -2.4 76
2017-12-10 19:00:00 17 15 Sudoeste 35 Sudoeste 0 1005.9 -3.4 70
2017-12-10 18:00:00 17.1 10 Sudoeste 26 Oeste 0 1006.9 -3.5 67
2017-12-10 17:00:00 17.5 10 Sudoeste 28 Sudoeste 0 1007.8 -2.7 70
2017-12-10 16:00:00 17.8 5 Oeste 30 Sudoeste 0 1009.3 -3 71
2017-12-10 15:00:00 18.1 13 Oeste 35 Sudoeste 0 1010.4 -3.3 69
2017-12-10 14:00:00 18.6 4 Oeste 23 Sudoeste 0 1010.5 -4 71
2017-12-10 13:00:00 17.5 6 Oeste 25 Noroeste 0 1012.3 -1.9 75
2017-12-10 12:00:00 16.5 12 Sudoeste 31 Sudoeste 0 1013.7 -0.5 81
2017-12-10 11:00:00 15.7 11 Oeste 33 Sudoeste 0.2 1014.5 0.4 88
2017-12-10 10:00:00 16 10 Oeste 27 Oeste 0 1014.2 0.2 85
2017-12-10 09:00:00 16 13 Oeste 29 Oeste 0 1014.2 0 84
2017-12-10 08:00:00 16.2 12 Oeste 36 Oeste 0 1014.1 -0.3 81
2017-12-10 07:00:00 16.3 8 Oeste 37 Noroeste 0 1014 -0.7 81
2017-12-10 06:00:00 16.8 7 Sudoeste 25 Sudoeste 0 1014.2 -0.9 76
2017-12-10 05:00:00 16.8 10 Oeste 25 Sudoeste 0 1014.4 -1.2 73
2017-12-10 04:00:00 17 10 Sudoeste 30 Sudoeste 0 1014.7 -1.7 72
2017-12-10 03:00:00 17 9 Sudoeste 26 Sudoeste 0 1015.1 -1.6 75
2017-12-10 02:00:00 16.9 9 Sudoeste 32 Sudoeste 0 1015.6 -1 78
2017-12-10 01:00:00 16.8 9 Oeste 29 Oeste 0 1016.4 -0.4 78
2017-12-10 00:00:00 16.7 7 Sudoeste 22 Sudoeste 0 1016.7 -0.3 78
2017-12-09 23:00:00 16.5 7 Sudoeste 18 Oeste 0 1016.6 0.5 79
2017-12-09 22:00:00 16.4 6 Sudoeste 30 Noroeste 0 1016.8 1 80
2017-12-09 21:00:00 16.1 7 Oeste 23 Noroeste 0 1017 2 79
2017-12-09 20:00:00 15.9 8 Sudoeste 25 Oeste 0 1016.1 1.9 81
2017-12-09 19:00:00 16.3 12 Noroeste 49 Noroeste 0 1015.8 1.6 78
2017-12-09 18:00:00 16.4 24 Noroeste 54 Noroeste 0 1015 0.3 78
2017-12-09 17:00:00 17.1 29 Noroeste 59 Noroeste 0 1014.2 -1.1 73
2017-12-09 16:00:00 17.8 20 Noroeste 51 Noroeste 0 1014.2 -2.3 70
2017-12-09 15:00:00 18.3 16 Oeste 49 Noroeste 0 1014.7 -2.3 66
2017-12-09 14:00:00 18.2 13 Oeste 44 Noroeste 0 1015.3 -1.7 68
2017-12-09 13:00:00 16.8 15 Oeste 39 Norte 0 1016.5 0 73
2017-12-09 12:00:00 16.2 13 Oeste 35 Noroeste 0 1017 0.9 78
2017-12-09 11:00:00 16.2 8 Oeste 36 Oeste 0 1017 1.2 76
2017-12-09 10:00:00 15.7 15 Noroeste 38 Noroeste 0 1016.5 1.2 82
2017-12-09 09:00:00 15.1 8 Noroeste 31 Noroeste 0 1016.1 0.9 87
2017-12-09 08:00:00 15.2 11 Noroeste 33 Noroeste 0 1015.8 0.5 85
2017-12-09 07:00:00 15.5 19 Noroeste 51 Noroeste 0 1015.3 0.3 83
2017-12-09 06:00:00 15.4 14 Noroeste 41 Noroeste 0 1015.2 -0.2 82
2017-12-09 05:00:00 16 13 Noroeste 46 Norte 0 1015.3 -0.1 77
2017-12-09 04:00:00 15.9 19 Noroeste 47 Oeste 0 1015 -1.3 76
2017-12-09 03:00:00 16.2 13 Oeste 50 Noroeste 0 1015.4 -1.1 69
2017-12-09 02:00:00 16.1 20 Noroeste 51 Noroeste 0 1015.4 -1.6 67
2017-12-09 01:00:00 16.2 22 Noroeste 50 Oeste 0 1016.3 -0.5 67
2017-12-09 00:00:00 16.3 22 Noroeste 46 Oeste 0 1016.5 -0.7 56
2017-12-08 23:00:00 16.7 12 Oeste 32 Oeste 0 1017 0.5 36
2017-12-08 22:00:00 15.4 10 Sudoeste 24 Sudoeste 0 1016.8 0.6 47
2017-12-08 21:00:00 15.6 6 Oeste 37 Noroeste 0 1017.2 1.3 49
2017-12-08 20:00:00 15.6 14 Oeste 31 Oeste 0 1016.5 0.5 49
2017-12-08 19:00:00 16.3 14 Noroeste 38 Noroeste 0 1016.2 0 33
2017-12-08 18:00:00 18.8 18 Noroeste 41 Noroeste 0 1015.9 -0.4 16
2017-12-08 17:00:00 18.6 20 Noroeste 47 Noroeste 0 1016 -0.9 16
2017-12-08 16:00:00 19.9 9 Oeste 19 Noroeste 0 1016.2 -1.6 20
2017-12-08 15:00:00 20 8 Sur 15 Sudoeste 0 1016.3 -2.5 29
2017-12-08 14:00:00 18.9 7 Sudeste 11 Este 0 1016.9 -2.3 35
2017-12-08 13:00:00 17.5 4 Nordeste 10 Nordeste 0 1017.8 -1.4 58
2017-12-08 12:00:00 16.8 4 Este 9 Sudeste 0 1018.8 0.1 58
2017-12-08 11:00:00 15.4 5 Sudeste 9 Norte 0 1019.2 0.7 77
2017-12-08 10:00:00 13.4 3 Este 10 Norte 0 1019.2 0.7 91
2017-12-08 09:00:00 11.2 4 Oeste 8 Sudoeste 0 1018.7 0.5 93
2017-12-08 08:00:00 10.2 5 Sudoeste 8 Sudoeste 0 1018.5 0.1 97
2017-12-08 07:00:00 10.7 3 Oeste 7 Noroeste 0 1018.5 -0.2 99
2017-12-08 06:00:00 10.7 4 Oeste 7 Oeste 0 1018.2 -0.8 98
2017-12-08 05:00:00 11 4 Noroeste 8 Noroeste 0 1018.4 -0.6 98
2017-12-08 04:00:00 11 5 Noroeste 12 Noroeste 0 1018.7 -0.7 95
2017-12-08 03:00:00 11.5 6 Oeste 9 Oeste 0 1019 -0.8 87
2017-12-08 02:00:00 11.8 8 Sudoeste 9 Oeste 0 1019 -1 85
2017-12-08 01:00:00 12 7 Sudoeste 9 Sudoeste 0 1019.4 -0.4 84
2017-12-08 00:00:00 12.4 5 Sudoeste 8 Sur 0 1019.8 0.1 84
2017-12-07 23:00:00 12.5 4 Sudoeste 8 Sudoeste 0 1020 0.6 82
2017-12-07 22:00:00 13.4 5 Sudeste 12 Sudeste 0 1019.8 0.5 77
2017-12-07 21:00:00 13.8 7 Sudeste 12 Sudeste 0 1019.7 0.7 77
2017-12-07 20:00:00 13.8 6 Sudeste 12 Sudeste 0 1019.4 0.5 78
2017-12-07 19:00:00 14 8 Sudeste 17 Sudeste 0 1019.3 0.3 76
2017-12-07 18:00:00 14.4 10 Sudeste 18 Sudeste 0 1019 -0.2 74
2017-12-07 17:00:00 15.5 12 Sudeste 21 Sur 0 1018.9 -0.8 70
2017-12-07 16:00:00 16.1 10 Sudeste 21 Sudeste 0 1019 -1.3 70
2017-12-07 15:00:00 16.1 13 Sudeste 21 Sudeste 0 1019.2 -1.8 70
2017-12-07 14:00:00 16.8 12 Sudeste 21 Sudeste 0 1019.7 -1.1 66
2017-12-07 13:00:00 16.9 13 Este 21 Sudeste 0 1020.3 -0.1 65
2017-12-07 12:00:00 16.3 9 Sudeste 17 Sur 0 1021 1.2 68
2017-12-07 11:00:00 15.5 10 Sur 17 Sur 0 1020.8 1.3 69
2017-12-07 10:00:00 14.8 8 Sur 21 Este 0 1020.4 1.2 72
2017-12-07 09:00:00 14.1 9 Sudeste 20 Este 0 1019.8 0.5 74
2017-12-07 08:00:00 14 12 Este 22 Este 0 1019.5 0 66
2017-12-07 07:00:00 14 12 Este 25 Este 0 1019.2 -0.6 68
2017-12-07 06:00:00 13.7 13 Este 23 Este 0 1019.3 -0.7 66
2017-12-07 05:00:00 13.6 10 Sudeste 23 Este 0 1019.5 -0.6 64
2017-12-07 04:00:00 13.7 14 Este 24 Este 0 1019.8 -0.6 64
2017-12-07 03:00:00 13.8 13 Este 24 Sudeste 0 1020 -0.8 67
2017-12-07 02:00:00 14 14 Este 25 Sudeste 0 1020.1 -0.5 67
2017-12-07 01:00:00 14 13 Sudeste 22 Este 0 1020.4 -0.3 70
2017-12-07 00:00:00 13.9 10 Sudeste 25 Sudeste 0 1020.8 0.1 68
2017-12-06 23:00:00 13.9 13 Sudeste 24 Sudeste 0 1020.6 0.2 66
2017-12-06 22:00:00 14.2 14 Sudeste 26 Este 0 1020.7 0.6 70
2017-12-06 21:00:00 14.3 13 Sudeste 24 Sudeste 0 1020.7 -- 69
2017-12-06 20:00:00 14 12 Sudeste 25 Sudeste 0 1020.4 0.4 67
2017-12-06 19:00:00 14 14 Sudeste 24 Este 0 1020.1 0 67
2017-12-06 18:00:00 14.2 14 Sudeste 26 Este 0 -- -- 70
2017-12-06 17:00:00 14.9 14 Sudeste 26 Este 0 1020 -0.8 70
2017-12-06 16:00:00 15.7 12 Sudeste 26 Sudeste 0 1020.1 -- 67
2017-12-06 15:00:00 16.1 16 Sudeste 27 Sudeste 0 1020.3 -2 64
2017-12-06 14:00:00 16.2 16 Sudeste 32 Sudeste 0 1020.8 -- 63
2017-12-06 13:00:00 15.3 12 Sudeste 32 Este 0 -- -- 73
2017-12-06 12:00:00 15.2 18 Este 33 Este 0 1022.3 0.3 63
2017-12-06 11:00:00 15.7 18 Este 32 Este 0 -- -- 60
2017-12-06 10:00:00 14.9 13 Este 30 Este 0 1022.3 0.9 62
2017-12-06 09:00:00 14 12 Este 28 Sudeste 0 1022 0.6 63
2017-12-06 08:00:00 13.9 15 Este 30 Este 0 1021.6 0 65
2017-12-06 07:00:00 13.9 15 Este 26 Este 0 1021.4 -0.7 65
2017-12-06 06:00:00 13.6 13 Este 27 Sudeste 0 1021.4 -0.8 66
2017-12-06 05:00:00 13.6 16 Este 28 Sudeste 0 1021.6 -0.8 66
2017-12-06 04:00:00 13.7 16 Este 30 Este 0 1022.1 -0.7 65
2017-12-06 03:00:00 13.7 15 Este 26 Sudeste 0 1022.2 -0.7 66
2017-12-06 02:00:00 13.8 14 Este 27 Este 0 1022.4 -0.4 64
2017-12-06 01:00:00 13.9 14 Este 26 Sudeste 0 1022.8 0 67
2017-12-06 00:00:00 14 17 Este 30 Este 0 1022.9 0.1 64
2017-12-05 23:00:00 14.1 17 Este 31 Este 0 1022.8 0.4 63
2017-12-05 22:00:00 14.2 14 Este 29 Este 0 1022.8 0.8 63
2017-12-05 21:00:00 14.3 13 Este 31 Este 0 1022.8 0.9 66
2017-12-05 20:00:00 14.3 15 Este 28 Este 0 1022.4 0.8 68
2017-12-05 19:00:00 14.4 16 Este 29 Este 0 1022 -- 69
2017-12-05 18:00:00 14.3 18 Este 34 Este 0 1021.9 0.2 77
2017-12-05 17:00:00 14.6 19 Este 39 Este 0 1021.6 -0.5 76
2017-12-05 16:00:00 14.7 23 Este 36 Este 0 -- -- 76
2017-12-05 15:00:00 15.8 14 Este 29 Sudeste 0 1021.7 -1.6 73
2017-12-05 14:00:00 16.7 15 Sudeste 31 Sudeste 0 1022.1 -1.3 65
2017-12-05 13:00:00 15.5 17 Este 33 Este 0 1022.7 -0.2 75
2017-12-05 12:00:00 14.7 15 Sudeste 35 Este 0 1023.3 0.9 75
2017-12-05 11:00:00 14.7 21 Este 40 Este 0 1023.4 1.3 76
2017-12-05 10:00:00 14.6 22 Este 38 Este 0 1022.9 1.3 75
2017-12-05 09:00:00 14.5 19 Este 36 Este 0 1022.4 1 67
2017-12-05 08:00:00 14.3 18 Este 40 Este 0 1022.1 0.7 73
2017-12-05 07:00:00 14.4 18 Este 36 Este 0 1021.6 -0.1 69
2017-12-05 06:00:00 14.2 19 Este 37 Este 0 1021.4 -0.2 63
2017-12-05 05:00:00 14.2 18 Este 43 Este 0 1021.4 -0.3 64
2017-12-05 04:00:00 14 16 Este 35 Este 0 1021.7 -0.3 64
2017-12-05 03:00:00 13.8 17 Este 36 Sudeste 0 1021.6 -0.6 63
2017-12-05 02:00:00 13.7 17 Este 40 Este 0 1021.7 -0.5 62
2017-12-05 01:00:00 13.7 21 Este 41 Este 0 1022 0 63
2017-12-05 00:00:00 13.9 19 Este 39 Este 0 1022.2 0.4 64
2017-12-04 23:00:00 13.8 17 Este 37 Este 0 1022.2 0.7 60
2017-12-04 22:00:00 13.8 18 Este 35 Sudeste 0 1022 1 63
2017-12-04 21:00:00 13.7 22 Este 35 Este 0 1021.8 1.1 62
2017-12-04 20:00:00 13.9 21 Este 36 Sudeste 0 1021.5 -- 63
2017-12-04 19:00:00 14 18 Este 35 Este 0 1021 0.9 62
2017-12-04 18:00:00 14 18 Este 35 Este 0 1020.7 0.6 60
2017-12-04 17:00:00 14.3 19 Este 36 Este 0 -- -- 61
2017-12-04 16:00:00 14.6 20 Este 38 Este 0 1020.1 -0.6 57
2017-12-04 15:00:00 15 21 Este 34 Sudeste 0 1020.1 -0.8 56
2017-12-04 14:00:00 15.3 21 Este 35 Este -- 1020.4 -0.5 56
2017-12-04 13:00:00 15 20 Este 36 Sudeste 0 1020.7 0.6 58
2017-12-04 12:00:00 15.2 18 Este 34 Sudeste 0 1020.9 1.4 60
2017-12-04 11:00:00 15.4 15 Este 34 Este 0 1020.9 2 60
2017-12-04 10:00:00 14.4 21 Este 34 Este 0 1020.1 1.8 58
2017-12-04 09:00:00 13.2 17 Este 31 Este 0 1019.5 1.5 62
2017-12-04 08:00:00 12.8 17 Este 33 Este 0 1018.9 0.9 62
2017-12-04 07:00:00 12.7 17 Este 30 Este 0 1018.3 0.2 61
2017-12-04 06:00:00 12.8 16 Este 38 Sudeste 0 1018 -0.1 60
2017-12-04 05:00:00 13 20 Este 35 Este 0 1018 -0.2 57
2017-12-04 04:00:00 13.2 18 Este 34 Sudeste 0 1018.1 -0.1 62
2017-12-04 03:00:00 13.1 18 Este 34 Este 0 1018.1 -0.1 65
2017-12-04 02:00:00 13.5 17 Este 39 Este 0 1018.2 0.6 65
2017-12-04 01:00:00 13.5 18 Este 33 Este 0 1018.2 0.8 62
2017-12-04 00:00:00 13.5 19 Este 32 Este 0 1018.2 1.1 62
2017-12-03 23:00:00 13.3 18 Este 34 Este 0 1017.6 0.9 60
2017-12-03 22:00:00 13.6 19 Este 36 Este 0 1017.4 1.3 61
2017-12-03 21:00:00 13.2 17 Sudeste 29 Este 0 1017.1 1.4 62
2017-12-03 20:00:00 12.9 14 Este 24 Este 0 1016.7 1.5 63
2017-12-03 19:00:00 12.3 11 Nordeste 19 Este 0 1016.1 1.2 59
2017-12-03 18:00:00 12.1 9 Este 17 Este 0 1015.7 0.8 48
2017-12-03 17:00:00 12.8 10 Este 21 Este 0 1015.2 0.2 46
2017-12-03 16:00:00 13.2 13 Nordeste 22 Este 0 1014.9 -0.4 44
2017-12-03 15:00:00 13.5 13 Este 22 Este 0 1014.9 -0.5 40
2017-12-03 14:00:00 13.3 12 Este 27 Este 0 1015 -0.3 33
2017-12-03 13:00:00 13.2 15 Nordeste 30 Nordeste 0 1015.3 0.7 33
2017-12-03 12:00:00 12.9 8 Norte 17 Norte 0 1015.4 1.4 43
2017-12-03 11:00:00 12.6 7 Norte 19 Norte 0 1015.3 1.7 43
2017-12-03 10:00:00 11.5 10 Norte 21 Norte 0 1014.6 1.4 43
2017-12-03 09:00:00 10 10 Noroeste 20 Noroeste 0 1014 1.2 52
2017-12-03 08:00:00 8.5 7 Noroeste 16 Noroeste 0 1013.6 0.9 52
2017-12-03 07:00:00 9.1 10 Noroeste 21 Norte 0 1013.2 0.6 48
2017-12-03 06:00:00 8.9 9 Noroeste 18 Noroeste 0 1012.8 0 54
2017-12-03 05:00:00 8.8 6 Noroeste 10 Noroeste 0 1012.7 -0.3 60
2017-12-03 04:00:00 9.2 5 Oeste 12 Noroeste 0 1012.6 -0.5 54
2017-12-03 03:00:00 9.2 7 Noroeste 15 Noroeste 0 1012.8 -0.3 56
2017-12-03 02:00:00 9.8 9 Noroeste 19 Noroeste 0 1013 0.2 53
2017-12-03 01:00:00 10 10 Noroeste 19 Noroeste 0 1013.1 0.5 57
2017-12-03 00:00:00 10 8 Noroeste 17 Noroeste 0 1013.1 1 57
2017-12-02 23:00:00 10.5 9 Noroeste 19 Noroeste 0 1012.8 1.1 60
2017-12-02 22:00:00 10.5 8 Noroeste 15 Noroeste 0 1012.6 1.3 59
2017-12-02 21:00:00 10.6 0 Calma 5 Norte 0 1012.1 1.3 46
2017-12-02 20:00:00 11.1 3 Noroeste 7 Norte 0 1011.7 1 47
2017-12-02 19:00:00 11.4 5 Noroeste 8 Oeste 0 1011.3 0.8 61
2017-12-02 18:00:00 12.5 4 Oeste 8 Noroeste 0 1010.8 0.1 52
2017-12-02 17:00:00 15.1 5 Noroeste 17 Noroeste 0 1010.7 -0.4 43
2017-12-02 16:00:00 15.2 9 Noroeste 22 Noroeste 0 1010.5 -1.1 41
2017-12-02 15:00:00 15.8 9 Noroeste 23 Noroeste 0 1010.7 -1.7 41
2017-12-02 14:00:00 16 8 Noroeste 22 Noroeste 0 1011.1 -- 43
2017-12-02 13:00:00 14.7 14 Norte 24 Norte 0 1011.6 -0.4 56
2017-12-02 12:00:00 14.3 9 Norte 26 Norte 0 1012.4 0.8 52
2017-12-02 11:00:00 13.3 13 Norte 22 Noroeste 0 -- -- 52
2017-12-02 10:00:00 12.7 9 Norte 19 Norte 0 1012 0.9 66
2017-12-02 09:00:00 10.6 7 Noroeste 12 Noroeste 0 1011.6 0.4 72
2017-12-02 08:00:00 9.3 6 Noroeste 13 Oeste 0 1011.4 0.5 77
2017-12-02 07:00:00 10.1 9 Noroeste 16 Noroeste 0 1011.1 0.1 76
2017-12-02 06:00:00 9.7 7 Noroeste 12 Noroeste 0 1011.2 0.1 76
2017-12-02 05:00:00 9.7 8 Noroeste 11 Noroeste 0 1010.9 -0.4 74
2017-12-02 04:00:00 9.8 9 Noroeste 17 Noroeste 0 1011 -0.4 71
2017-12-02 03:00:00 10.3 7 Noroeste 13 Noroeste 0 1011.1 -0.4 65
2017-12-02 02:00:00 11.4 9 Noroeste 21 Noroeste 0 1011.3 -0.4 60
2017-12-02 01:00:00 11.5 12 Noroeste 23 Noroeste 0 1011.4 -0.2 56
2017-12-02 00:00:00 11.6 10 Noroeste 20 Oeste 0 1011.5 0.7 54
2017-12-01 23:00:00 12.4 9 Noroeste 26 Norte 0 1011.7 1.7 51
2017-12-01 22:00:00 12.8 6 Noroeste 21 Oeste 0 1011.6 2.2 53
2017-12-01 21:00:00 13.1 13 Noroeste 37 Oeste 0 1010.8 1.5 57
2017-12-01 20:00:00 12.7 9 Noroeste 37 Noroeste 0 1010 0.8 59
2017-12-01 19:00:00 12.6 8 Oeste 36 Oeste 0 1009.4 0.6 52
2017-12-01 18:00:00 12.7 11 Oeste 36 Oeste 0 1009.3 0.4 57
2017-12-01 17:00:00 14 12 Oeste 28 Oeste 0 1009.2 -0.2 40
2017-12-01 16:00:00 15 10 Noroeste 32 Noroeste 0 1008.8 -1.2 40
2017-12-01 15:00:00 15.5 10 Oeste 26 Sudoeste 0 1008.9 -1.8 37
2017-12-01 14:00:00 15.6 12 Oeste 30 Oeste 0 1009.4 -1.6 37
2017-12-01 13:00:00 15.6 10 Oeste 25 Sudoeste 0 1010 -0.7 37
2017-12-01 12:00:00 16 4 Sudoeste 14 Sudoeste 0 1010.7 0.3 34
2017-12-01 11:00:00 13.9 5 Norte 10 Norte 0 1011 1 38
2017-12-01 10:00:00 12.7 5 Oeste 12 Sudoeste 0 1010.7 1.3 40
2017-12-01 09:00:00 10.3 6 Sudoeste 13 Sudoeste 0 1010.4 1 48
2017-12-01 08:00:00 8.9 5 Noroeste 12 Oeste 0 1010 0.4 53
2017-12-01 07:00:00 9.6 8 Sudoeste 12 Sudoeste 0 1009.4 -0.5 54
2017-12-01 06:00:00 9.6 6 Oeste 12 Oeste 0 1009.4 -0.2 52
2017-12-01 05:00:00 9.7 9 Sudoeste 13 Sur 0 1009.6 0.2 51
2017-12-01 04:00:00 9.7 5 Noroeste 18 Noroeste 0 1009.9 0.3 55
2017-12-01 03:00:00 10.4 9 Noroeste 23 Noroeste 0 1009.6 0.2 48
2017-12-01 02:00:00 10.8 12 Noroeste 21 Noroeste 0 1009.4 0.3 48
2017-12-01 01:00:00 11 6 Norte 21 Norte 0 1009.6 1.2 51
2017-12-01 00:00:00 11.3 12 Noroeste 22 Noroeste 0 1009.4 1.8 50
2017-11-30 23:00:00 11.9 12 Noroeste 29 Norte 0 1009.1 1.9 50
2017-11-30 22:00:00 12.2 14 Noroeste 34 Norte 0 1008.4 2.5 50
2017-11-30 21:00:00 12.5 19 Noroeste 32 Noroeste 0 1007.6 3.1 47
2017-11-30 20:00:00 12.6 17 Noroeste 27 Noroeste 0 1007.2 3.7 48
2017-11-30 19:00:00 12.9 15 Noroeste 32 Noroeste 0 1005.9 3.3 57
2017-11-30 18:00:00 13.7 13 Noroeste 32 Oeste 0 1004.5 2.5 53
2017-11-30 17:00:00 14.9 10 Oeste 31 Oeste 0 1003.5 1.7 55
2017-11-30 16:00:00 14.6 12 Oeste 38 Sudoeste 0 1002.6 0.8 61
2017-11-30 15:00:00 14.1 18 Oeste 42 Sudoeste 0 1002 0.3 66
2017-11-30 14:00:00 14.7 17 Sudoeste 37 Sudoeste 0 1001.8 0.4 64
2017-11-30 13:00:00 14.9 14 Sudoeste 31 Sudoeste 0 1001.8 1.1 55
2017-11-30 12:00:00 15.5 6 Oeste 28 Noroeste 0 1001.7 2 58
2017-11-30 11:00:00 15 4 Oeste 27 Oeste 0 1001.4 2.6 55
2017-11-30 10:00:00 13.5 10 Noroeste 29 Noroeste 0 1000.7 2.6 66
2017-11-30 09:00:00 12.6 6 Oeste 37 Noroeste 0 999.7 2 63
2017-11-30 08:00:00 12.2 12 Noroeste 38 Noroeste 0 998.8 1.4 65
2017-11-30 07:00:00 12.5 10 Oeste 29 Noroeste 0 998.1 0.9 64
2017-11-30 06:00:00 13.5 11 Oeste 33 Oeste 0 997.7 0.3 55
2017-11-30 05:00:00 14.2 12 Oeste 36 Noroeste 0 997.4 -0.1 59
2017-11-30 04:00:00 14.7 15 Oeste 33 Noroeste 0 997.2 -0.5 62
2017-11-30 03:00:00 15 6 Noroeste 30 Oeste 0 997.4 -0.3 64
2017-11-30 02:00:00 14.9 5 Noroeste 19 Sur 0 997.5 -0.5 67
2017-11-30 01:00:00 15.1 8 Noroeste 32 Noroeste 0 997.7 -- 67
2017-11-30 00:00:00 15.5 18 Noroeste 35 Noroeste 0 997.7 -- 72
2017-11-29 23:00:00 15.8 13 Noroeste 31 Noroeste 0 998 0.7 83
2017-11-29 22:00:00 16.3 17 Noroeste 39 Noroeste 0 -- -- 82
2017-11-29 21:00:00 16.9 19 Noroeste 37 Noroeste 0 -- -- 89
2017-11-29 20:00:00 17.1 17 Noroeste 39 Noroeste 0 997.3 -- 90
2017-11-29 19:00:00 17.4 18 Noroeste 40 Noroeste 5.8 -- -- 92
2017-11-29 18:00:00 18.3 15 Oeste 42 Oeste 0 996.3 0.2 88
2017-11-29 17:00:00 17.9 9 Oeste 43 Oeste 9.2 -- -- 92
2017-11-29 16:00:00 17.9 12 Sudoeste 37 Sudoeste 6.8 995.7 -1.2 92
2017-11-29 15:00:00 18.8 10 Sudoeste 36 Oeste 0 996.1 -1.9 87
2017-11-29 14:00:00 18 11 Sudoeste 38 Sur 2.4 996.5 -1.4 93
2017-11-29 13:00:00 18.7 14 Sudoeste 42 Sudoeste 4.2 996.9 -0.8 89
2017-11-29 12:00:00 18.6 9 Oeste 55 Oeste 1.2 998 -0.1 91
2017-11-29 11:00:00 18.8 15 Sudoeste 50 Sudoeste 1.8 997.9 -0.3 88
2017-11-29 10:00:00 20.6 14 Sudoeste 48 Sur 0 997.7 -0.8 73
2017-11-29 09:00:00 19.9 14 Sudoeste 41 Oeste 0 998.1 -0.6 76
2017-11-29 08:00:00 19.4 12 Sudoeste 41 Oeste 0 998.2 -0.8 78
2017-11-29 07:00:00 19.6 14 Sudoeste 35 Sudoeste 0 998.5 -1.3 76
2017-11-29 06:00:00 19.7 11 Sudoeste 32 Oeste 0 998.7 -1.6 66
2017-11-29 05:00:00 19.8 11 Sudoeste 29 Oeste 0 999 -2 63
2017-11-29 04:00:00 19.7 7 Sudoeste 28 Oeste 0 999.8 -2 61
2017-11-29 03:00:00 18.9 7 Sudoeste 16 Sudoeste 0 1000.3 -2.4 66
2017-11-29 02:00:00 16.6 2 Nordeste 9 Sur 0 1001 -2.4 92
2017-11-29 01:00:00 16.2 2 Noroeste 13 Sudoeste 0 1001.8 -2.2 89
2017-11-29 00:00:00 16.3 5 Sur 14 Sudoeste 0 1002.7 -1.5 81
2017-11-28 23:00:00 15.1 5 Sur 12 Sur 0.2 1003.4 -1.3 98
2017-11-28 22:00:00 14.7 3 Sudoeste 9 Sudoeste 0 1004 -1.1 97
2017-11-28 21:00:00 14.4 6 Oeste 10 Sudoeste 0 1004.2 -1.2 97
2017-11-28 20:00:00 14.5 6 Sudoeste 9 Sudoeste 0 1004.7 -1.4 96
2017-11-28 19:00:00 15.2 5 Sudoeste 8 Sudoeste 0 1005.1 -1.5 93
2017-11-28 18:00:00 16.3 6 Sur 13 Sudeste 0 1005.4 -1.7 89
2017-11-28 17:00:00 17 10 Sur 17 Sur 0 1006.1 -1.4 86
2017-11-28 16:00:00 17.5 9 Sudeste 13 Este 0 1006.6 -2.3 85
2017-11-28 15:00:00 17.4 10 Nordeste 14 Nordeste 0 1007.1 -2.8 85
2017-11-28 14:00:00 18.5 10 Sudeste 17 Sudeste 0 1007.5 -3 79
2017-11-28 13:00:00 17.9 10 Sudeste 17 Sudeste 0 1008.9 -- 82
2017-11-28 12:00:00 17.7 9 Sudeste 18 Sudeste 0 1009.9 -0.9 84
2017-11-28 11:00:00 16.6 8 Sudeste 14 Sudeste 0.2 1010.5 -0.5 89
2017-11-28 10:00:00 16.3 8 Sudeste 18 Sur 0 -- -- 89
2017-11-28 09:00:00 16.1 10 Sudeste 18 Sudeste 0 1010.8 -- 91
2017-11-28 08:00:00 16 5 Este 13 Este 0 1011 -0.3 91
2017-11-28 07:00:00 15.9 8 Este 17 Sudeste 0 1010.9 -1 90
2017-11-28 06:00:00 16 8 Sudeste 16 Sudeste 0 -- -- 89
2017-11-28 05:00:00 15.9 8 Este 15 Sudeste 0 1011.3 -1.9 91
2017-11-28 04:00:00 16 7 Sudeste 14 Este 0 1011.9 -1.9 90
2017-11-28 03:00:00 16.1 8 Sudeste 15 Este 0 1012.4 -2 91
2017-11-28 02:00:00 16.3 9 Sudeste 18 Sudeste 0 1013.2 -1.3 93
2017-11-28 01:00:00 16.3 11 Este 20 Este 0 1013.8 -- 92
2017-11-28 00:00:00 16.3 11 Este 18 Este 0 1014.4 -0.5 91
2017-11-27 23:00:00 16.2 9 Este 21 Este 0 1014.5 -0.5 90
2017-11-27 22:00:00 16.1 12 Este 21 Este 0 -- -- 91
2017-11-27 21:00:00 16.3 9 Este 19 Sudeste 0 1014.9 0 89
2017-11-27 20:00:00 16.3 12 Este 21 Este 0 1015 0 88
2017-11-27 19:00:00 16.3 12 Este 24 Este 0 -- -- 89
2017-11-27 18:00:00 16.5 12 Este 22 Este 0 1014.9 -0.4 89
2017-11-27 17:00:00 17.2 11 Sudeste 28 Este 0 1015 -1 87
2017-11-27 16:00:00 18 15 Este 26 Este 0 1015 -1.9 83
2017-11-27 15:00:00 17.7 17 Este 28 Sudeste 0 1015.3 -2.2 84
2017-11-27 14:00:00 17.7 15 Este 28 Este 0 1016 -1.5 87
2017-11-27 13:00:00 17.4 17 Este 30 Este 0 1016.9 -0.2 89
2017-11-27 12:00:00 17.3 15 Este 24 Este 0 1017.5 1 90
2017-11-27 11:00:00 17.3 13 Este 24 Este 0 1017.5 1.3 88
2017-11-27 10:00:00 17.1 16 Este 29 Sudeste 0 1017.1 -- 91
2017-11-27 09:00:00 17 14 Este 26 Este 0 1016.5 0.7 93
2017-11-27 08:00:00 16.8 15 Este 29 Este 0 1016.2 0.8 93
2017-11-27 07:00:00 16.8 14 Este 27 Este 0 -- -- 93
2017-11-27 06:00:00 16.8 15 Este 28 Este 0 1015.8 0.1 92
2017-11-27 05:00:00 16.9 15 Este 28 Este 0 1015.4 -0.6 93
2017-11-27 04:00:00 16.9 17 Este 27 Este 0 -- -- 94
2017-11-27 03:00:00 16.9 15 Este 26 Este 0 1015.7 -1 93
2017-11-27 02:00:00 17 13 Este 26 Este 0 1016 -0.8 92
2017-11-27 01:00:00 17 14 Este 29 Este 0 1016.4 -0.3 92
2017-11-27 00:00:00 17 14 Este 27 Este 0 1016.7 0 93
2017-11-26 23:00:00 17.2 13 Este 26 Sudeste 0 1016.8 0.2 94
2017-11-26 22:00:00 17.3 16 Este 27 Este 0 1016.7 0.4 93
2017-11-26 21:00:00 17.4 14 Este 23 Este 0 1016.7 0.8 93
2017-11-26 20:00:00 17.5 12 Este 23 Nordeste 0 1016.6 1.1 93
2017-11-26 19:00:00 17.5 12 Nordeste 21 Nordeste 0 1016.3 1.1 94
2017-11-26 18:00:00 17.7 10 Nordeste 21 Nordeste 0 1015.9 1 92
2017-11-26 17:00:00 18 12 Nordeste 22 Nordeste 0 1015.5 0.5 91
2017-11-26 16:00:00 18.1 13 Nordeste 24 Nordeste 0 1015.2 -0.1 91
2017-11-26 15:00:00 18.7 9 Nordeste 17 Norte 0 1014.9 -0.6 87
2017-11-26 14:00:00 19.6 10 Norte 18 Norte 0 1015 0.1 82
2017-11-26 13:00:00 19.6 9 Norte 21 Norte 0 1015.3 1.1 68
2017-11-26 12:00:00 20.8 13 Norte 21 Norte 0 1015.5 2.2 54
2017-11-26 11:00:00 21.7 8 Nordeste 16 Noroeste 0 1014.9 2.3 51
2017-11-26 10:00:00 21 4 Oeste 21 Oeste 0 1014.2 2.3 55
2017-11-26 09:00:00 21.8 12 Noroeste 21 Oeste 0 1013.3 1.5 39
2017-11-26 08:00:00 21.1 9 Oeste 17 Noroeste 0 1012.6 1.1 43
2017-11-26 07:00:00 20.2 6 Noroeste 15 Oeste 0 1011.9 0.4 54
2017-11-26 06:00:00 19 5 Sur 11 Noroeste 0 1011.8 0.5 51
2017-11-26 05:00:00 20.1 5 Oeste 13 Sur 0 1011.5 0.2 46
2017-11-26 04:00:00 19 4 Nordeste 8 Sur 0 1011.5 0 43
2017-11-26 03:00:00 18.4 3 Norte 15 Oeste 0 1011.3 -0.3 43
2017-11-26 02:00:00 18.2 3 Sur 8 Oeste 0 1011.3 -0.2 42
2017-11-26 01:00:00 19.2 4 Sudoeste 9 Oeste 0 1011.5 0.1 36
2017-11-26 00:00:00 19.4 4 Sudoeste 11 Sur 0 1011.6 0.3 39
2017-11-25 23:00:00 19.6 4 Sur 13 Sudoeste 0 1011.5 0.5 36
2017-11-25 22:00:00 19.7 4 Oeste 10 Oeste 0 1011.4 0.7 30
2017-11-25 21:00:00 18.7 3 Noroeste 9 Sur 0 1011.3 0.9 31
2017-11-25 20:00:00 19.1 8 Sur 14 Oeste 0 1011 1 42
2017-11-25 19:00:00 19 0 Calma 12 Noroeste 0 1010.7 1.3 36
2017-11-25 18:00:00 20.3 6 Sudoeste 13 Oeste 0 1010.4 0.8 32
2017-11-25 17:00:00 20 5 Sur 9 Sur 0 1010 0 77
2017-11-25 16:00:00 18.6 5 Sur 9 Sur 0 1009.4 -1.3 85
2017-11-25 15:00:00 18.1 7 Sur 12 Sur 0 1009.6 -1.6 86
2017-11-25 14:00:00 18.2 11 Sur 14 Sur 0 1010 -1.3 86
2017-11-25 13:00:00 16.6 3 Este 12 Norte 0 1010.7 -0.1 92
2017-11-25 12:00:00 17.4 5 Nordeste 11 Norte 0 1011.2 0.6 78
2017-11-25 11:00:00 16.3 7 Sur 14 Sur 0 1011.3 1.1 84
2017-11-25 10:00:00 14.5 10 Sur 14 Sur 0 1010.8 0.9 80
2017-11-25 09:00:00 13.5 11 Sur 14 Sur 0 1010.6 0.6 82
2017-11-25 08:00:00 12.4 11 Sur 13 Sur 0 1010.2 0.3 84
2017-11-25 07:00:00 13.4 9 Sur 17 Sudoeste 0 1009.9 0.2 88
2017-11-25 06:00:00 11.8 11 Sur 13 Sur 0 1010 0.1 91
2017-11-25 05:00:00 12.8 8 Sur 11 Sur 0 1009.9 0 98
2017-11-25 04:00:00 13.7 7 Sur 9 Sur 0 1009.7 -0.5 98
2017-11-25 03:00:00 14.5 5 Sudoeste 11 Sudoeste 0 1009.9 -0.3 100
2017-11-25 02:00:00 14.6 7 Sudoeste 11 Sudoeste 0 1009.9 -0.5 99
2017-11-25 01:00:00 15.3 5 Sudoeste 10 Sudoeste 0 1010.2 -0.3 92
2017-11-25 00:00:00 15.3 8 Sudoeste 11 Sudoeste 0 1010.2 -0.2 84
2017-11-24 23:00:00 15.5 7 Sur 9 Sur 0 1010.4 0.1 80
2017-11-24 22:00:00 15.6 5 Sur 14 Sudoeste 0 1010.5 0.5 81
2017-11-24 21:00:00 16 9 Sudoeste 15 Sudoeste 0 1010.4 0.5 83
2017-11-24 20:00:00 15.6 8 Sudoeste 13 Sudoeste 0 1010.3 0.5 89
2017-11-24 19:00:00 16.1 7 Sudoeste 16 Sur 0 1010 0.2 87
2017-11-24 18:00:00 16.9 10 Sur 17 Sur 0 1009.9 0.1 90
2017-11-24 17:00:00 18 13 Sur 17 Sur 0 1009.8 -0.5 79
2017-11-24 16:00:00 19 10 Sur 16 Sur 0 1009.8 -0.9 81
2017-11-24 15:00:00 19.3 8 Sur 14 Sur 0 1009.8 -1.6 70
2017-11-24 14:00:00 19.3 8 Sudeste 15 Sudeste 0 1010.3 -1.3 70
2017-11-24 13:00:00 18.6 9 Sudeste 17 Sudeste 0 1010.7 -0.7 83
2017-11-24 12:00:00 18.5 10 Sudeste 15 Sudeste 0 1011.4 0.4 83
2017-11-24 11:00:00 18.1 8 Sudeste 13 Sur 0 1011.6 0.9 84
2017-11-24 10:00:00 17 6 Sur 11 Sur 0 1011.4 1.1 92
2017-11-24 09:00:00 15.7 6 Sudoeste 9 Sudoeste 0 1011 0.9 99
2017-11-24 08:00:00 14.7 4 Sudoeste 6 Oeste 0 1010.7 0.7 100
2017-11-24 07:00:00 14.8 4 Sudoeste 6 Sudoeste 0 1010.3 0.2 100
2017-11-24 06:00:00 14.9 4 Sudoeste 6 Sur 0 1010.1 -0.1 100
2017-11-24 05:00:00 15.1 5 Sudoeste 6 Sudoeste 0 1010 -- 99
2017-11-24 04:00:00 15.4 5 Sudoeste 8 Sudoeste 0 1010.1 -0.7 96
2017-11-24 03:00:00 15.6 6 Sudoeste 9 Sudoeste 0 1010.2 -0.7 95
2017-11-24 02:00:00 15.7 4 Sur 9 Sudoeste 0 -- -- 94
2017-11-24 01:00:00 15.8 5 Sudoeste 10 Sudoeste 0 1010.8 -0.2 92
2017-11-24 00:00:00 15.3 6 Sudoeste 10 Sudoeste 0 1010.9 0.2 89
2017-11-23 23:00:00 15.3 7 Sudoeste 13 Sudoeste 0 1010.7 0.2 92
2017-11-23 22:00:00 15.3 5 Sudoeste 10 Sudoeste 0 1011 1 96
2017-11-23 21:00:00 15.6 7 Sudoeste 12 Sudoeste 0 1010.7 0.9 88
2017-11-23 20:00:00 15.8 6 Sudoeste 12 Sudoeste 0 1010.5 1 93
2017-11-23 19:00:00 16.3 8 Sur 13 Sur 0 1010 0.9 92
2017-11-23 18:00:00 16.9 8 Sur 14 Sur 0 1009.8 0.5 86
2017-11-23 17:00:00 17.9 9 Sur 15 Sudeste 0 1009.5 -0.2 86
2017-11-23 16:00:00 18.4 9 Sur 14 Sudeste 0 1009.1 -0.9 83
2017-11-23 15:00:00 18.6 10 Sudeste 17 Sudeste 0 1009.3 -0.9 83
2017-11-23 14:00:00 19.2 9 Sudeste 13 Sudeste 0 1009.7 -0.3 77
2017-11-23 13:00:00 19.5 6 Sudeste 13 Nordeste 0 1010 0.5 65
2017-11-23 12:00:00 17.7 5 Norte 10 Norte 0 1010.2 1.4 87
2017-11-23 11:00:00 18.3 4 Sudeste 10 Sur 0 1010 1.9 80
2017-11-23 10:00:00 16.4 6 Sur 9 Sur 0 1009.5 2 90
2017-11-23 09:00:00 13.8 3 Noroeste 6 Sudoeste 0 1008.8 1.9 100
2017-11-23 08:00:00 12.9 2 Oeste 5 Noroeste 0 1008.1 1.7 99
2017-11-23 07:00:00 12.6 4 Noroeste 10 Norte 0 1007.5 1.1 98
2017-11-23 06:00:00 13.3 4 Noroeste 7 Oeste 0 1006.9 0.6 98
2017-11-23 05:00:00 13.9 5 Sudoeste 8 Oeste 0 1006.4 0.1 98
2017-11-23 04:00:00 14 5 Sudoeste 9 Sudoeste 0 1006.4 -0.2 90
2017-11-23 03:00:00 14.6 8 Sudoeste 11 Sudoeste 0 1006.3 -0.1 89
2017-11-23 02:00:00 14.1 6 Sudoeste 9 Sudoeste 0 1006.3 -0.2 89
2017-11-23 01:00:00 14.8 8 Sur 13 Sur 0 1006.6 0.2 86
2017-11-23 00:00:00 14.7 10 Sudoeste 14 Sudoeste 0 1006.4 0.1 87
2017-11-22 23:00:00 14.5 9 Sudoeste 12 Sudoeste 0 1006.5 0.5 81
2017-11-22 22:00:00 14.1 4 Sudoeste 14 Sudoeste 0 1006.4 0.6 88
2017-11-22 21:00:00 14.5 8 Sur 14 Sudoeste 0 1006.3 0.7 91
2017-11-22 20:00:00 14.8 9 Sudoeste 13 Sudoeste 0 1006 0.5 91
2017-11-22 19:00:00 15.1 6 Sudoeste 14 Sur 0 1005.8 0.2 89
2017-11-22 18:00:00 16 9 Sur 15 Sur 0 1005.6 -0.1 85
2017-11-22 17:00:00 17.2 7 Sur 15 Sur 0 1005.5 -0.6 78
2017-11-22 16:00:00 17.5 9 Sur 18 Sur 0 1005.6 -1.4 76
2017-11-22 15:00:00 17.2 12 Sur 19 Sur 0 1005.7 -1.9 77
2017-11-22 14:00:00 17.5 11 Sudeste 19 Sur 0 1006.1 -1.7 76
2017-11-22 13:00:00 17.4 10 Sur 17 Sur 0 1007 -0.6 76
2017-11-22 12:00:00 17.8 5 Sudeste 14 Este 0 1007.6 0.6 74
2017-11-22 11:00:00 16.9 5 Este 12 Este 0 1007.8 1.1 79
2017-11-22 10:00:00 15.5 5 Sur 11 Sur 0 1007.6 1.1 86
2017-11-22 09:00:00 13.8 4 Sudoeste 9 Sudoeste 0 1007 0.6 95
2017-11-22 08:00:00 13.4 5 Sudoeste 8 Sudoeste 0 1006.7 -0.1 95
2017-11-22 07:00:00 13.3 4 Sudoeste 8 Sudoeste 0 1006.5 -0.8 96
2017-11-22 06:00:00 13.7 5 Sur 8 Sur 0 1006.4 -1.3 95
2017-11-22 05:00:00 13.9 4 Sudoeste 9 Sudoeste 0 1006.8 -1.3 94
2017-11-22 04:00:00 14.5 4 Sudoeste 9 Sur 0 1007.3 -1.4 93
2017-11-22 03:00:00 14.5 4 Sur 11 Sur 0 1007.7 -1.2 93
2017-11-22 02:00:00 14.4 4 Sur 7 Sur 0 1008.1 -1 95
2017-11-22 01:00:00 14.4 4 Sur 6 Sur 0 1008.7 -0.6 95
2017-11-22 00:00:00 14.4 4 Sur 9 Sudoeste 0 1008.9 -0.6 95
2017-11-21 23:00:00 14.3 7 Sudoeste 10 Sudoeste 0 1009.1 -0.5 95
2017-11-21 22:00:00 14.5 6 Sudoeste 9 Sudoeste 0 1009.3 0 93
2017-11-21 21:00:00 15.3 5 Sudoeste 9 Sudoeste 0 1009.5 0.3 91
2017-11-21 20:00:00 15.7 5 Sur 11 Sur 0 1009.6 0.3 91
2017-11-21 19:00:00 15.6 4 Sur 11 Sur 0 1009.3 0 90
2017-11-21 18:00:00 16.4 7 Sur 13 Sur 0 1009.2 -0.4 87
2017-11-21 17:00:00 17.5 9 Sudeste 15 Sur 0 1009.3 -1.1 81
2017-11-21 16:00:00 18.3 9 Sudeste 15 Sur 0 1009.3 -1.9 77
2017-11-21 15:00:00 18.8 8 Sudeste 18 Sur 0 1009.6 -2.5 76
2017-11-21 14:00:00 18.7 8 Este 17 Este 0 1010.4 -2 75
2017-11-21 13:00:00 18.7 8 Sur 16 Sur 0 1011.2 -0.8 74
2017-11-21 12:00:00 18.5 7 Sudeste 15 Sur 0 1012.1 0.3 75
2017-11-21 11:00:00 17.9 7 Sudeste 16 Sudeste 0 1012.4 0.9 79
2017-11-21 10:00:00 17.9 8 Este 14 Este 0 1012 0.5 79
2017-11-21 09:00:00 16.3 5 Este 13 Sudeste 0 1011.8 0.4 84
2017-11-21 08:00:00 16 6 Sudeste 14 Sudeste 0 1011.5 -- 83
2017-11-21 07:00:00 16.3 9 Sudeste 17 Sudeste 0 1011.5 -- 82
2017-11-21 06:00:00 16.3 9 Sudeste 21 Sudeste 0 1011.4 -0.4 82
2017-11-21 05:00:00 16.4 8 Este 16 Sudeste 0 -- -- 84
2017-11-21 04:00:00 16.4 8 Este 14 Sudeste 0 -- -- 87
2017-11-21 03:00:00 16.5 10 Este 16 Este 0 1011.8 -0.2 88
2017-11-21 02:00:00 16.4 9 Este 15 Este 0 1011.7 -0.4 89
2017-11-21 01:00:00 16.4 9 Este 17 Este 0 1012 -0.2 91
2017-11-21 00:00:00 16.4 8 Este 19 Este 0 1012 0 94
2017-11-20 23:00:00 16.5 10 Sudeste 20 Este 0 1012.1 0.1 96
2017-11-20 22:00:00 16.3 9 Este 15 Este 0 1012.2 0.5 96
2017-11-20 21:00:00 16.5 8 Este 15 Este 0 1012 0.4 95
2017-11-20 20:00:00 16.5 7 Sudeste 14 Sudeste 0 1012 0.5 96
2017-11-20 19:00:00 16.2 8 Este 15 Este 0 1011.7 0.2 94
2017-11-20 18:00:00 16.6 8 Este 18 Nordeste 0 1011.6 -0.1 92
2017-11-20 17:00:00 17.6 9 Este 20 Sudeste 0 1011.5 -0.7 85
2017-11-20 16:00:00 18.1 13 Este 26 Nordeste 0 1011.5 -1.2 84
2017-11-20 15:00:00 17.5 18 Nordeste 26 Este 0 1011.7 -1.3 87
2017-11-20 14:00:00 17.4 15 Nordeste 25 Este 0 1012.2 -0.8 88
2017-11-20 13:00:00 17.5 12 Nordeste 27 Este 0 1012.7 0.1 89
2017-11-20 12:00:00 17.9 16 Nordeste 27 Nordeste 0 1013 0.8 86
2017-11-20 11:00:00 17.6 14 Nordeste 22 Este 0 1013 1.2 87
2017-11-20 10:00:00 17 12 Este 18 Este 0 1012.6 1.1 86
2017-11-20 09:00:00 15.6 7 Este 13 Este 0 1012.2 1.1 94
2017-11-20 08:00:00 15.2 7 Este 13 Este 0 1011.8 0.9 92
2017-11-20 07:00:00 15.2 7 Este 16 Este 0 1011.5 0.4 91
2017-11-20 06:00:00 15.3 8 Este 19 Este 0 1011.1 0 91
2017-11-20 05:00:00 15.5 9 Este 17 Este 0 1010.9 -0.3 92
2017-11-20 04:00:00 15.7 8 Este 18 Este 0 1011.1 -0.2 93
2017-11-20 03:00:00 15.8 10 Este 17 Este 0 1011.1 -0.5 94
2017-11-20 02:00:00 15.8 9 Este 18 Este 0 1011.2 -0.2 93
2017-11-20 01:00:00 15.9 11 Este 23 Este 0 1011.3 0.2 94
2017-11-20 00:00:00 16 13 Este 20 Este 0 1011.6 0.8 93
2017-11-19 23:00:00 16 12 Este 24 Este 0 1011.4 0.9 93
2017-11-19 22:00:00 16.2 14 Este 25 Este 0 1011.1 1 92
2017-11-19 21:00:00 16.4 13 Este 25 Este 0 1010.8 1.2 90
2017-11-19 20:00:00 16.8 12 Este 24 Este 0 1010.5 1 90
2017-11-19 19:00:00 16.9 12 Sudeste 20 Este 0 1010.1 0.7 86
2017-11-19 18:00:00 17.1 11 Sudeste 22 Este 0 1009.6 0.1 84
2017-11-19 17:00:00 17.3 12 Sudeste 23 Este 0 1009.5 -0.4 87
2017-11-19 16:00:00 17.7 12 Sudeste 21 Sudeste 0 1009.4 -1 79
2017-11-19 15:00:00 17.8 13 Sudeste 21 Sudeste 0 1009.5 -1.4 78
2017-11-19 14:00:00 17.8 13 Sudeste 21 Sudeste 0 1009.9 -0.9 78
2017-11-19 13:00:00 18 13 Sudeste 23 Sudeste 0 1010.4 -0.1 76
2017-11-19 12:00:00 17.3 13 Sudeste 29 Este 0 1010.9 1 79
2017-11-19 11:00:00 18.1 18 Este 31 Este 0 1010.8 1.5 75
2017-11-19 10:00:00 17.8 17 Este 29 Sudeste 0 1010.5 1.6 73
2017-11-19 09:00:00 16.4 14 Este 24 Este 0 1009.9 1.2 81
2017-11-19 08:00:00 16 13 Este 22 Sudeste 0 1009.3 0.7 83
2017-11-19 07:00:00 15.6 13 Este 24 Este 0 1008.9 0.2 84
2017-11-19 06:00:00 15.7 12 Este 23 Este 0 1008.7 -0.1 83
2017-11-19 05:00:00 16 13 Este 23 Este 0 1008.6 -0.1 83
2017-11-19 04:00:00 16.2 11 Este 23 Sudeste 0 1008.7 -0.3 85
2017-11-19 03:00:00 16.1 11 Sudeste 23 Sudeste 0 1008.8 -0.1 79
2017-11-19 02:00:00 16.3 10 Sudeste 24 Este 0 1008.7 -0.1 81
2017-11-19 01:00:00 16.4 11 Sudeste 23 Este 0 1009 0.2 86
2017-11-19 00:00:00 16.2 13 Este 22 Sudeste 0 1008.9 0.3 86
2017-11-18 23:00:00 16.2 14 Este 24 Sudeste 0 1008.8 0.3 86
2017-11-18 22:00:00 16.1 13 Este 23 Este 0 1008.8 0.5 85
2017-11-18 21:00:00 16.1 13 Este 23 Sudeste 0 1008.6 0.6 85
2017-11-18 20:00:00 16.1 12 Este 26 Sudeste 0 1008.5 0.7 84
2017-11-18 19:00:00 16.2 11 Este 26 Este 0 1008.3 0.6 83
2017-11-18 18:00:00 16.4 13 Este 24 Este 0 1008 0.2 86
2017-11-18 17:00:00 17.3 12 Este 23 Este 0 1007.8 -0.7 82
2017-11-18 16:00:00 17.7 14 Este 24 Este 0 1007.7 -1.3 79
2017-11-18 15:00:00 18.6 14 Este 23 Sur 0 1007.8 -1.7 67
2017-11-18 14:00:00 18.3 14 Sudeste 24 Sudeste 0 1008.5 -1.1 69
2017-11-18 13:00:00 18.9 14 Sudeste 24 Este 0 1009 -0.3 67
2017-11-18 12:00:00 18.5 15 Este 26 Sudeste 0 1009.5 0.7 70
2017-11-18 11:00:00 17.6 11 Este 26 Este 0 1009.6 1.2 74
2017-11-18 10:00:00 17 13 Este 21 Este 0 1009.3 1.1 77
2017-11-18 09:00:00 16.4 14 Este 23 Este 0 1008.8 0.5 80
2017-11-18 08:00:00 16.3 12 Este 22 Este 0 1008.4 0.3 80
2017-11-18 07:00:00 16.4 8 Este 18 Este 0 1008.2 -0.4 75
2017-11-18 06:00:00 16.4 12 Este 19 Sudeste 0 1008.3 -0.5 73
2017-11-18 05:00:00 16.5 10 Sudeste 21 Sudeste 0 1008.1 -0.8 73
2017-11-18 04:00:00 16.5 10 Sudeste 23 Este 0 1008.6 -0.6 71
2017-11-18 03:00:00 16.3 12 Este 21 Este 0 1008.8 -0.4 73
2017-11-18 02:00:00 16.3 10 Este 20 Este 0 1008.9 -0.3 73
2017-11-18 01:00:00 16.4 12 Sudeste 21 Sudeste 0 1009.2 0.2 74
2017-11-18 00:00:00 16.4 11 Este 21 Este 0 1009.2 0.3 75
2017-11-17 23:00:00 16.4 11 Sudeste 19 Este 0 1009.2 0.4 76
2017-11-17 22:00:00 16.1 11 Este 18 Este 0 1009 0.5 78
2017-11-17 21:00:00 16 10 Sudeste 18 Este 0 1008.9 0.8 80
2017-11-17 20:00:00 16 10 Sudeste 18 Este 0 1008.8 0.7 80
2017-11-17 19:00:00 16.6 11 Sudeste 17 Sudeste 0 1008.5 0.3 77
2017-11-17 18:00:00 16.7 9 Sudeste 17 Sudeste 0 1008.1 -0.5 81
2017-11-17 17:00:00 17.2 9 Sudeste 19 Sudeste 0 1008.1 -1.1 78
2017-11-17 16:00:00 18.1 12 Este 18 Este 0 1008.2 -1.5 76
2017-11-17 15:00:00 18.5 9 Sudeste 23 Nordeste 0 1008.6 -1.7 74
2017-11-17 14:00:00 17.2 14 Este 24 Nordeste 0 1009.2 -1.1 84
2017-11-17 13:00:00 18.7 10 Este 19 Este 0 1009.7 -0.6 68
2017-11-17 12:00:00 18.6 9 Sudeste 17 Sudeste 0 1010.3 0.5 68
2017-11-17 11:00:00 17.9 9 Este 18 Este 0 1010.3 0.9 65
2017-11-17 10:00:00 17.2 8 Sudeste 16 Sudeste 0 1010.3 1.1 70
2017-11-17 09:00:00 16.7 7 Sudeste 19 Este 0 1009.8 0.7 84
2017-11-17 08:00:00 16.4 9 Sudeste 16 Este 0 1009.4 0.4 73
2017-11-17 07:00:00 15.9 9 Este 19 Este 0 1009.2 -0.1 89
2017-11-17 06:00:00 16 9 Este 16 Este 0 1009.1 -0.3 86
2017-11-17 05:00:00 16.2 9 Este 14 Este 0 1009 -0.6 75
2017-11-17 04:00:00 16.1 6 Este 17 Este 0 1009.3 -0.6 78
2017-11-17 03:00:00 16.3 9 Este 17 Sudeste 0 1009.4 -0.7 80
2017-11-17 02:00:00 16.3 9 Sudeste 17 Sudeste 0 1009.6 -0.3 83
2017-11-17 01:00:00 16.1 8 Este 15 Este 0 1009.9 0.3 84
2017-11-17 00:00:00 16 9 Este 15 Sudeste 0 1010.1 0.8 84
2017-11-16 23:00:00 16.1 8 Este 15 Este 0 1009.9 0.9 83
2017-11-16 22:00:00 15.9 7 Sudeste 13 Sudeste 0 1009.6 1 85
2017-11-16 21:00:00 15.3 3 Sur 8 Sur 0 1009.3 0.8 88
2017-11-16 20:00:00 15.6 5 Sur 12 Sur 0 1009 0.6 85
2017-11-16 19:00:00 16.2 7 Sur 15 Sudeste 0 1008.6 0.2 82
2017-11-16 18:00:00 16.6 9 Sur 17 Sudeste 0 1008.5 0.1 80
2017-11-16 17:00:00 17.4 8 Sudeste 16 Sudeste 0 1008.4 -0.4 75
2017-11-16 16:00:00 18.3 9 Sudeste 18 Este 0 1008.4 -1 71
2017-11-16 15:00:00 18.6 10 Sudeste 19 Este 0 1008.4 -1.7 68
2017-11-16 14:00:00 19.2 8 Sudeste 17 Sur 0 1008.8 -1.3 67
2017-11-16 13:00:00 18.9 9 Este 16 Este 0 1009.4 -0.4 66
2017-11-16 12:00:00 18.6 9 Sur 16 Sudeste 0 1010.1 0.9 66
2017-11-16 11:00:00 18.4 8 Sudeste 14 Sudeste 0 1010.1 1.5 67
2017-11-16 10:00:00 18 4 Sur 8 Sur 0 1009.8 1.6 69
2017-11-16 09:00:00 15.6 3 Sudoeste 6 Sudoeste 0 1009.2 1 79
2017-11-16 08:00:00 14.1 5 Sudoeste 6 Sudoeste 0 1008.6 0.3 85
2017-11-16 07:00:00 14 3 Sur 10 Sur 0 1008.2 -0.1 85
2017-11-16 06:00:00 14.1 4 Sur 6 Sur 0 1008.2 -0.3 83
2017-11-16 05:00:00 13.9 3 Sur 6 Sudoeste 0 1008.3 -0.1 83
2017-11-16 04:00:00 14.1 4 Sur 9 Sudeste 0 1008.3 -0.3 80
2017-11-16 03:00:00 15.3 6 Sudeste 15 Sudeste 0 1008.5 -0.1 74
2017-11-16 02:00:00 15.4 7 Sudeste 15 Sudeste 0 1008.4 -0.2 73
2017-11-16 01:00:00 15.4 6 Sudeste 15 Este 0 1008.6 0 74
2017-11-16 00:00:00 15.6 8 Sudeste 14 Sudeste 0 1008.6 0.2 73
2017-11-15 23:00:00 15.9 9 Sudeste 15 Sudeste 0 1008.6 0.5 71
2017-11-15 22:00:00 16.1 10 Sudeste 19 Sudeste 0 1008.6 0.5 67
2017-11-15 21:00:00 16.2 10 Sudeste 19 Este 0 1008.4 0.6 65
2017-11-15 20:00:00 16 12 Sudeste 21 Sudeste 0 1008.1 0.3 67
2017-11-15 19:00:00 16.3 12 Sudeste 22 Sudeste 0 1008.1 0.4 66
2017-11-15 18:00:00 16.6 13 Este 22 Este 0 1007.8 -0.2 67
2017-11-15 17:00:00 17.4 15 Este 26 Sudeste 0 1007.8 -0.6 63
2017-11-15 16:00:00 17.6 17 Este 32 Este 0 1007.7 -1.3 60
2017-11-15 15:00:00 17.9 20 Este 35 Este 0 1008 -1.6 62
2017-11-15 14:00:00 19.1 18 Este 31 Este 0 1008.4 -1.3 58
2017-11-15 13:00:00 19.5 18 Sudeste 33 Este 0 1009 -0.5 56
2017-11-15 12:00:00 18.9 19 Este 32 Este 0 1009.6 0.5 60
2017-11-15 11:00:00 18.8 18 Sudeste 33 Sudeste 0 1009.7 1.1 61
2017-11-15 10:00:00 18.2 19 Sudeste 32 Este 0 1009.5 1.2 65
2017-11-15 09:00:00 17.8 16 Sudeste 32 Sudeste 0 1009.1 0.9 68
2017-11-15 08:00:00 17.1 18 Sudeste 39 Este 0 1008.6 0.5 74
2017-11-15 07:00:00 17 22 Este 40 Este 0 1008.3 0.2 77
2017-11-15 06:00:00 17 18 Este 32 Sudeste 0 1008.2 0 77
2017-11-15 05:00:00 16.7 15 Sudeste 34 Este 0 1008.1 0 72
2017-11-15 04:00:00 16.8 16 Este 32 Este 0 1008.1 0 72
2017-11-15 03:00:00 17.2 18 Sudeste 31 Sudeste 0 1008.2 0.2 71
2017-11-15 02:00:00 17.2 15 Sudeste 29 Sudeste 0 1008.1 0.2 76
2017-11-15 01:00:00 17.3 16 Sudeste 26 Sudeste 0 1008.1 0.3 78
2017-11-15 00:00:00 17.1 11 Sudeste 18 Sudeste 0 1008 0.4 76